sensor_id;sensor_type;location;lat;lon;timestamp;pressure;altitude;pressure_sealevel;temperature;humidity
41102;BME280;26845;50.190;19.178;2022-09-17T00:01:39;97681.20;;;9.48;90.86
41102;BME280;26845;50.190;19.178;2022-09-17T00:04:05;97685.48;;;9.45;90.56
41102;BME280;26845;50.190;19.178;2022-09-17T00:06:33;97692.35;;;9.39;90.65
41102;BME280;26845;50.190;19.178;2022-09-17T00:09:00;97695.25;;;9.36;90.60
41102;BME280;26845;50.190;19.178;2022-09-17T00:11:29;97689.31;;;9.32;90.63
41102;BME280;26845;50.190;19.178;2022-09-17T00:13:57;97687.62;;;9.24;90.85
41102;BME280;26845;50.190;19.178;2022-09-17T00:16:28;97692.67;;;9.16;90.80
41102;BME280;26845;50.190;19.178;2022-09-17T00:18:59;97688.70;;;9.11;90.79
41102;BME280;26845;50.190;19.178;2022-09-17T00:21:26;97681.06;;;9.08;90.94
41102;BME280;26845;50.190;19.178;2022-09-17T00:24:00;97684.37;;;9.08;90.94
41102;BME280;26845;50.190;19.178;2022-09-17T00:26:29;97689.20;;;9.05;90.95
41102;BME280;26845;50.190;19.178;2022-09-17T00:28:57;97684.59;;;9.03;90.98
41102;BME280;26845;50.190;19.178;2022-09-17T00:31:30;97684.20;;;8.98;90.98
41102;BME280;26845;50.190;19.178;2022-09-17T00:33:57;97691.70;;;8.97;91.17
41102;BME280;26845;50.190;19.178;2022-09-17T00:36:24;97680.03;;;8.98;91.30
41102;BME280;26845;50.190;19.178;2022-09-17T00:38:56;97677.27;;;8.98;91.43
41102;BME280;26845;50.190;19.178;2022-09-17T00:41:28;97676.20;;;8.96;91.33
41102;BME280;26845;50.190;19.178;2022-09-17T00:43:57;97671.19;;;8.90;90.99
41102;BME280;26845;50.190;19.178;2022-09-17T00:46:44;97675.78;;;8.86;91.23
41102;BME280;26845;50.190;19.178;2022-09-17T00:49:18;97672.70;;;8.78;91.31
41102;BME280;26845;50.190;19.178;2022-09-17T00:54:32;97672.04;;;8.82;91.66
41102;BME280;26845;50.190;19.178;2022-09-17T00:56:59;97677.98;;;8.86;91.94
41102;BME280;26845;50.190;19.178;2022-09-17T00:59:25;97679.41;;;8.92;91.95
41102;BME280;26845;50.190;19.178;2022-09-17T01:01:52;97682.98;;;8.93;91.66
41102;BME280;26845;50.190;19.178;2022-09-17T01:04:23;97680.80;;;8.92;91.52
41102;BME280;26845;50.190;19.178;2022-09-17T01:07:22;97675.12;;;8.89;91.60
41102;BME280;26845;50.190;19.178;2022-09-17T01:24:03;97666.59;;;8.79;92.07
41102;BME280;26845;50.190;19.178;2022-09-17T01:29:51;97666.94;;;8.77;92.04
41102;BME280;26845;50.190;19.178;2022-09-17T01:32:41;97662.64;;;8.74;92.08
41102;BME280;26845;50.190;19.178;2022-09-17T01:38:18;97670.55;;;8.69;92.24
41102;BME280;26845;50.190;19.178;2022-09-17T01:41:11;97662.10;;;8.66;92.09
41102;BME280;26845;50.190;19.178;2022-09-17T01:44:13;97667.95;;;8.64;92.06
41102;BME280;26845;50.190;19.178;2022-09-17T01:47:04;97670.98;;;8.65;92.28
41102;BME280;26845;50.190;19.178;2022-09-17T01:49:34;97672.55;;;8.60;92.46
41102;BME280;26845;50.190;19.178;2022-09-17T01:52:01;97677.28;;;8.60;92.50
41102;BME280;26845;50.190;19.178;2022-09-17T01:54:30;97681.09;;;8.61;92.46
41102;BME280;26845;50.190;19.178;2022-09-17T02:00:04;97671.53;;;8.65;92.46
41102;BME280;26845;50.190;19.178;2022-09-17T02:05:20;97661.52;;;8.66;92.35
41102;BME280;26845;50.190;19.178;2022-09-17T02:07:57;97658.61;;;8.63;92.34
41102;BME280;26845;50.190;19.178;2022-09-17T02:10:26;97660.89;;;8.61;92.63
41102;BME280;26845;50.190;19.178;2022-09-17T02:13:05;97663.75;;;8.58;92.40
41102;BME280;26845;50.190;19.178;2022-09-17T02:15:36;97668.66;;;8.52;92.69
41102;BME280;26845;50.190;19.178;2022-09-17T02:18:22;97675.81;;;8.53;92.77
41102;BME280;26845;50.190;19.178;2022-09-17T02:20:49;97684.52;;;8.58;92.68
41102;BME280;26845;50.190;19.178;2022-09-17T02:23:20;97682.24;;;8.60;92.64
41102;BME280;26845;50.190;19.178;2022-09-17T02:25:52;97688.81;;;8.62;92.61
41102;BME280;26845;50.190;19.178;2022-09-17T02:31:10;97688.73;;;8.64;92.66
41102;BME280;26845;50.190;19.178;2022-09-17T02:33:37;97688.09;;;8.59;92.43
41102;BME280;26845;50.190;19.178;2022-09-17T02:36:05;97692.34;;;8.56;92.75
41102;BME280;26845;50.190;19.178;2022-09-17T02:38:31;97695.19;;;8.53;92.45
41102;BME280;26845;50.190;19.178;2022-09-17T02:41:19;97694.16;;;8.52;92.45
41102;BME280;26845;50.190;19.178;2022-09-17T02:47:00;97689.14;;;8.45;92.63
41102;BME280;26845;50.190;19.178;2022-09-17T02:52:55;97687.11;;;8.40;92.63
41102;BME280;26845;50.190;19.178;2022-09-17T03:01:35;97687.07;;;8.31;92.97
41102;BME280;26845;50.190;19.178;2022-09-17T03:04:00;97687.56;;;8.33;93.14
41102;BME280;26845;50.190;19.178;2022-09-17T03:06:27;97675.60;;;8.35;93.37
41102;BME280;26845;50.190;19.178;2022-09-17T03:08:54;97669.72;;;8.37;93.47
41102;BME280;26845;50.190;19.178;2022-09-17T03:11:21;97668.53;;;8.31;93.15
41102;BME280;26845;50.190;19.178;2022-09-17T03:13:47;97670.15;;;8.32;93.79
41102;BME280;26845;50.190;19.178;2022-09-17T03:16:13;97666.00;;;8.32;93.74
41102;BME280;26845;50.190;19.178;2022-09-17T03:18:39;97667.78;;;8.37;95.68
41102;BME280;26845;50.190;19.178;2022-09-17T03:21:04;97663.31;;;8.39;94.43
41102;BME280;26845;50.190;19.178;2022-09-17T03:23:30;97664.30;;;8.34;94.42
41102;BME280;26845;50.190;19.178;2022-09-17T03:25:57;97662.33;;;8.34;94.21
41102;BME280;26845;50.190;19.178;2022-09-17T03:28:23;97663.38;;;8.36;94.23
41102;BME280;26845;50.190;19.178;2022-09-17T03:30:51;97653.45;;;8.35;94.27
41102;BME280;26845;50.190;19.178;2022-09-17T03:33:17;97654.43;;;8.30;94.01
41102;BME280;26845;50.190;19.178;2022-09-17T03:35:44;97653.31;;;8.31;94.09
41102;BME280;26845;50.190;19.178;2022-09-17T03:38:10;97647.34;;;8.36;94.27
41102;BME280;26845;50.190;19.178;2022-09-17T03:40:37;97647.20;;;8.32;93.95
41102;BME280;26845;50.190;19.178;2022-09-17T03:43:06;97647.59;;;8.28;94.43
41102;BME280;26845;50.190;19.178;2022-09-17T03:45:32;97649.49;;;8.21;94.25
41102;BME280;26845;50.190;19.178;2022-09-17T03:47:57;97637.20;;;8.16;94.54
41102;BME280;26845;50.190;19.178;2022-09-17T03:50:23;97639.17;;;8.16;95.32
41102;BME280;26845;50.190;19.178;2022-09-17T03:52:49;97632.68;;;8.11;94.68
41102;BME280;26845;50.190;19.178;2022-09-17T03:55:14;97636.66;;;8.08;94.61
41102;BME280;26845;50.190;19.178;2022-09-17T03:57:42;97627.81;;;8.08;94.68
41102;BME280;26845;50.190;19.178;2022-09-17T04:00:09;97632.77;;;8.09;94.58
41102;BME280;26845;50.190;19.178;2022-09-17T04:02:37;97633.34;;;8.08;94.62
41102;BME280;26845;50.190;19.178;2022-09-17T04:05:03;97631.03;;;8.10;94.74
41102;BME280;26845;50.190;19.178;2022-09-17T04:07:29;97626.22;;;8.14;94.42
41102;BME280;26845;50.190;19.178;2022-09-17T04:09:55;97627.52;;;8.16;94.48
41102;BME280;26845;50.190;19.178;2022-09-17T04:12:20;97624.61;;;8.13;94.26
41102;BME280;26845;50.190;19.178;2022-09-17T04:14:46;97632.27;;;8.07;94.39
41102;BME280;26845;50.190;19.178;2022-09-17T04:17:12;97629.50;;;8.07;94.45
41102;BME280;26845;50.190;19.178;2022-09-17T04:19:40;97632.70;;;8.03;94.83
41102;BME280;26845;50.190;19.178;2022-09-17T04:22:05;97638.55;;;8.01;94.60
41102;BME280;26845;50.190;19.178;2022-09-17T04:24:31;97634.74;;;8.00;94.76
41102;BME280;26845;50.190;19.178;2022-09-17T04:26:56;97630.59;;;8.00;94.91
41102;BME280;26845;50.190;19.178;2022-09-17T04:29:22;97624.48;;;8.00;94.68
41102;BME280;26845;50.190;19.178;2022-09-17T04:31:48;97620.33;;;8.00;94.70
41102;BME280;26845;50.190;19.178;2022-09-17T04:34:13;97624.88;;;7.96;94.86
41102;BME280;26845;50.190;19.178;2022-09-17T04:36:39;97620.73;;;7.96;95.11
41102;BME280;26845;50.190;19.178;2022-09-17T04:39:05;97617.96;;;7.96;95.35
41102;BME280;26845;50.190;19.178;2022-09-17T04:41:30;97626.03;;;7.95;94.97
41102;BME280;26845;50.190;19.178;2022-09-17T04:43:56;97616.66;;;7.94;95.22
41102;BME280;26845;50.190;19.178;2022-09-17T04:46:21;97616.28;;;7.89;95.24
41102;BME280;26845;50.190;19.178;2022-09-17T04:48:47;97613.52;;;7.89;95.37
41102;BME280;26845;50.190;19.178;2022-09-17T04:51:13;97620.75;;;7.87;95.40
41102;BME280;26845;50.190;19.178;2022-09-17T04:53:38;97614.41;;;7.87;95.93
41102;BME280;26845;50.190;19.178;2022-09-17T04:56:04;97612.59;;;7.91;97.02
41102;BME280;26845;50.190;19.178;2022-09-17T04:58:30;97615.28;;;7.94;96.52
41102;BME280;26845;50.190;19.178;2022-09-17T05:00:57;97616.34;;;7.95;97.30
41102;BME280;26845;50.190;19.178;2022-09-17T05:03:22;97616.58;;;7.96;96.82
41102;BME280;26845;50.190;19.178;2022-09-17T05:05:48;97615.20;;;7.96;96.71
41102;BME280;26845;50.190;19.178;2022-09-17T05:08:14;97629.52;;;7.98;96.83
41102;BME280;26845;50.190;19.178;2022-09-17T05:10:40;97636.67;;;7.99;96.97
41102;BME280;26845;50.190;19.178;2022-09-17T05:13:05;97641.81;;;8.03;97.68
41102;BME280;26845;50.190;19.178;2022-09-17T05:15:31;97637.49;;;8.08;97.07
41102;BME280;26845;50.190;19.178;2022-09-17T05:17:57;97634.78;;;8.15;97.14
41102;BME280;26845;50.190;19.178;2022-09-17T05:20:22;97637.39;;;8.20;97.35
41102;BME280;26845;50.190;19.178;2022-09-17T05:22:50;97640.53;;;8.24;97.34
41102;BME280;26845;50.190;19.178;2022-09-17T05:25:18;97646.47;;;8.29;97.24
41102;BME280;26845;50.190;19.178;2022-09-17T05:27:47;97637.16;;;8.33;97.55
41102;BME280;26845;50.190;19.178;2022-09-17T05:30:13;97628.45;;;8.38;97.70
41102;BME280;26845;50.190;19.178;2022-09-17T05:32:39;97633.84;;;8.43;97.46
41102;BME280;26845;50.190;19.178;2022-09-17T05:35:05;97635.28;;;8.49;98.12
41102;BME280;26845;50.190;19.178;2022-09-17T05:37:34;97639.00;;;8.53;97.60
41102;BME280;26845;50.190;19.178;2022-09-17T05:40:01;97628.06;;;8.56;97.90
41102;BME280;26845;50.190;19.178;2022-09-17T05:42:29;97635.97;;;8.61;97.50
41102;BME280;26845;50.190;19.178;2022-09-17T05:44:55;97641.06;;;8.65;97.63
41102;BME280;26845;50.190;19.178;2022-09-17T05:47:20;97641.23;;;8.68;97.68
41102;BME280;26845;50.190;19.178;2022-09-17T05:49:46;97640.56;;;8.71;97.95
41102;BME280;26845;50.190;19.178;2022-09-17T05:52:11;97638.26;;;8.73;97.91
41102;BME280;26845;50.190;19.178;2022-09-17T05:54:37;97634.17;;;8.80;97.94
41102;BME280;26845;50.190;19.178;2022-09-17T05:57:03;97634.89;;;8.83;98.90
41102;BME280;26845;50.190;19.178;2022-09-17T05:59:30;97633.88;;;8.87;98.62
41102;BME280;26845;50.190;19.178;2022-09-17T06:01:56;97640.30;;;8.94;98.42
41102;BME280;26845;50.190;19.178;2022-09-17T06:04:21;97641.72;;;9.00;98.51
41102;BME280;26845;50.190;19.178;2022-09-17T06:06:47;97636.36;;;9.10;99.08
41102;BME280;26845;50.190;19.178;2022-09-17T06:09:12;97636.66;;;9.17;99.28
41102;BME280;26845;50.190;19.178;2022-09-17T06:11:38;97627.80;;;9.23;99.02
41102;BME280;26845;50.190;19.178;2022-09-17T06:14:08;97621.80;;;9.28;99.48
41102;BME280;26845;50.190;19.178;2022-09-17T06:16:34;97621.03;;;9.33;99.34
41102;BME280;26845;50.190;19.178;2022-09-17T06:19:00;97617.48;;;9.39;98.93
41102;BME280;26845;50.190;19.178;2022-09-17T06:21:26;97601.61;;;9.48;99.40
41102;BME280;26845;50.190;19.178;2022-09-17T06:23:51;97593.21;;;9.57;99.20
41102;BME280;26845;50.190;19.178;2022-09-17T06:26:17;97599.59;;;9.63;98.77
41102;BME280;26845;50.190;19.178;2022-09-17T06:28:44;97596.03;;;9.69;98.55
41102;BME280;26845;50.190;19.178;2022-09-17T06:31:16;97602.28;;;9.72;98.40
41102;BME280;26845;50.190;19.178;2022-09-17T06:33:42;97608.05;;;9.73;97.87
41102;BME280;26845;50.190;19.178;2022-09-17T06:36:09;97615.93;;;9.71;97.83
41102;BME280;26845;50.190;19.178;2022-09-17T06:38:36;97618.34;;;9.73;97.67
41102;BME280;26845;50.190;19.178;2022-09-17T06:41:03;97604.73;;;9.74;97.87
41102;BME280;26845;50.190;19.178;2022-09-17T06:43:29;97607.50;;;9.74;97.82
41102;BME280;26845;50.190;19.178;2022-09-17T06:46:00;97608.05;;;9.73;97.47
41102;BME280;26845;50.190;19.178;2022-09-17T06:48:28;97615.15;;;9.77;97.92
41102;BME280;26845;50.190;19.178;2022-09-17T06:50:54;97626.70;;;9.79;97.83
41102;BME280;26845;50.190;19.178;2022-09-17T06:53:23;97619.53;;;9.78;97.73
41102;BME280;26845;50.190;19.178;2022-09-17T06:55:49;97621.30;;;9.82;97.75
41102;BME280;26845;50.190;19.178;2022-09-17T06:58:15;97637.27;;;9.85;97.78
41102;BME280;26845;50.190;19.178;2022-09-17T07:00:42;97617.64;;;9.90;97.77
41102;BME280;26845;50.190;19.178;2022-09-17T07:03:08;97612.10;;;9.97;97.60
41102;BME280;26845;50.190;19.178;2022-09-17T07:05:34;97620.92;;;10.05;97.53
41102;BME280;26845;50.190;19.178;2022-09-17T07:08:01;97647.05;;;10.10;97.23
41102;BME280;26845;50.190;19.178;2022-09-17T07:10:28;97639.78;;;10.11;97.25
41102;BME280;26845;50.190;19.178;2022-09-17T07:12:54;97638.77;;;10.16;97.34
41102;BME280;26845;50.190;19.178;2022-09-17T07:15:20;97638.19;;;10.17;96.76
41102;BME280;26845;50.190;19.178;2022-09-17T07:17:46;97633.81;;;10.22;97.00
41102;BME280;26845;50.190;19.178;2022-09-17T07:20:12;97630.67;;;10.23;96.58
41102;BME280;26845;50.190;19.178;2022-09-17T07:22:38;97632.47;;;10.28;96.41
41102;BME280;26845;50.190;19.178;2022-09-17T07:25:05;97643.22;;;10.29;95.87
41102;BME280;26845;50.190;19.178;2022-09-17T07:27:32;97651.56;;;10.35;96.26
41102;BME280;26845;50.190;19.178;2022-09-17T07:29:58;97658.20;;;10.55;96.45
41102;BME280;26845;50.190;19.178;2022-09-17T07:32:24;97661.13;;;10.77;96.75
41102;BME280;26845;50.190;19.178;2022-09-17T07:34:50;97666.14;;;10.90;95.66
41102;BME280;26845;50.190;19.178;2022-09-17T07:37:17;97656.62;;;10.97;95.17
41102;BME280;26845;50.190;19.178;2022-09-17T07:39:43;97659.40;;;11.10;95.61
41102;BME280;26845;50.190;19.178;2022-09-17T07:42:09;97662.32;;;11.07;93.17
41102;BME280;26845;50.190;19.178;2022-09-17T07:44:36;97672.39;;;11.06;94.24
41102;BME280;26845;50.190;19.178;2022-09-17T07:47:02;97674.25;;;11.08;94.43
41102;BME280;26845;50.190;19.178;2022-09-17T07:49:29;97675.05;;;11.20;94.80
41102;BME280;26845;50.190;19.178;2022-09-17T07:51:55;97673.78;;;11.30;93.04
41102;BME280;26845;50.190;19.178;2022-09-17T07:54:22;97676.06;;;11.46;94.01
41102;BME280;26845;50.190;19.178;2022-09-17T07:56:48;97664.58;;;11.54;92.39
41102;BME280;26845;50.190;19.178;2022-09-17T07:59:13;97668.03;;;11.63;92.82
41102;BME280;26845;50.190;19.178;2022-09-17T08:01:39;97668.16;;;11.67;92.54
41102;BME280;26845;50.190;19.178;2022-09-17T08:04:05;97667.69;;;11.65;92.45
41102;BME280;26845;50.190;19.178;2022-09-17T08:06:35;97675.23;;;11.64;90.53
41102;BME280;26845;50.190;19.178;2022-09-17T08:09:03;97685.19;;;11.65;92.32
41102;BME280;26845;50.190;19.178;2022-09-17T08:11:29;97680.55;;;11.76;91.64
41102;BME280;26845;50.190;19.178;2022-09-17T08:13:56;97671.22;;;11.84;91.81
41102;BME280;26845;50.190;19.178;2022-09-17T08:16:22;97669.52;;;11.85;91.53
41102;BME280;26845;50.190;19.178;2022-09-17T08:18:55;97662.06;;;11.89;91.39
41102;BME280;26845;50.190;19.178;2022-09-17T08:21:22;97656.50;;;11.96;91.46
41102;BME280;26845;50.190;19.178;2022-09-17T08:23:48;97651.34;;;12.04;92.24
41102;BME280;26845;50.190;19.178;2022-09-17T08:26:16;97647.50;;;12.08;87.60
41102;BME280;26845;50.190;19.178;2022-09-17T08:28:47;97651.77;;;12.18;90.68
41102;BME280;26845;50.190;19.178;2022-09-17T08:31:15;97650.02;;;12.42;91.00
41102;BME280;26845;50.190;19.178;2022-09-17T08:33:43;97656.90;;;12.54;89.34
41102;BME280;26845;50.190;19.178;2022-09-17T08:36:11;97660.32;;;12.63;88.19
41102;BME280;26845;50.190;19.178;2022-09-17T08:38:38;97660.52;;;12.70;85.27
41102;BME280;26845;50.190;19.178;2022-09-17T08:41:19;97662.50;;;12.86;84.66
41102;BME280;26845;50.190;19.178;2022-09-17T09:01:30;97625.98;;;13.58;81.66
41102;BME280;26845;50.190;19.178;2022-09-17T09:07:16;97625.14;;;13.38;79.38
41102;BME280;26845;50.190;19.178;2022-09-17T09:10:34;97637.98;;;13.33;78.66
41102;BME280;26845;50.190;19.178;2022-09-17T09:12:34;97643.86;;;13.21;79.58
41102;BME280;26845;50.190;19.178;2022-09-17T09:15:03;97638.25;;;13.27;83.75
41102;BME280;26845;50.190;19.178;2022-09-17T09:17:44;97636.14;;;13.40;83.56
41102;BME280;26845;50.190;19.178;2022-09-17T09:20:48;97640.78;;;13.42;79.01
41102;BME280;26845;50.190;19.178;2022-09-17T09:22:51;97653.08;;;13.32;80.81
41102;BME280;26845;50.190;19.178;2022-09-17T09:25:20;97661.05;;;13.23;80.64
41102;BME280;26845;50.190;19.178;2022-09-17T09:28:09;97662.91;;;13.10;80.59
41102;BME280;26845;50.190;19.178;2022-09-17T09:33:46;97679.14;;;12.82;80.21
41102;BME280;26845;50.190;19.178;2022-09-17T09:36:15;97674.09;;;12.72;79.48
41102;BME280;26845;50.190;19.178;2022-09-17T09:39:02;97676.61;;;12.61;78.68
41102;BME280;26845;50.190;19.178;2022-09-17T09:41:56;97686.50;;;12.58;78.75
41102;BME280;26845;50.190;19.178;2022-09-17T09:44:24;97677.42;;;12.62;80.42
41102;BME280;26845;50.190;19.178;2022-09-17T09:55:48;97693.34;;;12.55;77.97
41102;BME280;26845;50.190;19.178;2022-09-17T10:00:56;97686.91;;;12.45;79.33
41102;BME280;26845;50.190;19.178;2022-09-17T10:03:32;97686.55;;;12.46;78.84
41102;BME280;26845;50.190;19.178;2022-09-17T10:06:02;97693.52;;;12.46;78.94
41102;BME280;26845;50.190;19.178;2022-09-17T10:08:41;97692.80;;;12.49;77.30
41102;BME280;26845;50.190;19.178;2022-09-17T10:11:27;97691.87;;;12.51;79.28
41102;BME280;26845;50.190;19.178;2022-09-17T10:13:50;97690.34;;;12.54;78.23
41102;BME280;26845;50.190;19.178;2022-09-17T10:16:21;97689.72;;;12.60;79.32
41102;BME280;26845;50.190;19.178;2022-09-17T10:19:38;97687.34;;;12.69;78.52
41102;BME280;26845;50.190;19.178;2022-09-17T10:21:32;97689.53;;;12.75;78.19
41102;BME280;26845;50.190;19.178;2022-09-17T10:24:02;97689.23;;;12.87;77.14
41102;BME280;26845;50.190;19.178;2022-09-17T10:26:32;97689.94;;;12.99;78.07
41102;BME280;26845;50.190;19.178;2022-09-17T10:29:02;97687.73;;;12.99;74.76
41102;BME280;26845;50.190;19.178;2022-09-17T10:31:49;97691.43;;;12.87;76.08
41102;BME280;26845;50.190;19.178;2022-09-17T10:36:51;97703.98;;;12.65;77.40
41102;BME280;26845;50.190;19.178;2022-09-17T10:42:17;97699.17;;;12.56;78.31
41102;BME280;26845;50.190;19.178;2022-09-17T10:44:54;97694.78;;;12.49;77.23
41102;BME280;26845;50.190;19.178;2022-09-17T10:47:29;97686.58;;;12.40;77.05
41102;BME280;26845;50.190;19.178;2022-09-17T10:50:23;97688.59;;;12.33;78.57
41102;BME280;26845;50.190;19.178;2022-09-17T10:52:38;97703.11;;;12.33;78.72
41102;BME280;26845;50.190;19.178;2022-09-17T11:21:39;97695.66;;;12.59;80.08
41102;BME280;26845;50.190;19.178;2022-09-17T11:24:29;97690.27;;;12.66;80.12
41102;BME280;26845;50.190;19.178;2022-09-17T11:30:21;97713.56;;;12.58;79.92
41102;BME280;26845;50.190;19.178;2022-09-17T11:35:57;97724.16;;;12.46;79.83
41102;BME280;26845;50.190;19.178;2022-09-17T11:38:28;97716.98;;;12.45;79.96
41102;BME280;26845;50.190;19.178;2022-09-17T11:41:03;97716.08;;;12.35;79.62
41102;BME280;26845;50.190;19.178;2022-09-17T11:43:37;97719.73;;;12.23;79.87
41102;BME280;26845;50.190;19.178;2022-09-17T11:46:12;97710.04;;;12.11;80.43
41102;BME280;26845;50.190;19.178;2022-09-17T11:49:08;97707.25;;;12.11;80.89
41102;BME280;26845;50.190;19.178;2022-09-17T11:51:53;97706.55;;;12.14;81.31
41102;BME280;26845;50.190;19.178;2022-09-17T11:54:37;97710.53;;;12.07;81.38
41102;BME280;26845;50.190;19.178;2022-09-17T11:57:18;97710.97;;;12.09;81.78
41102;BME280;26845;50.190;19.178;2022-09-17T12:02:24;97698.06;;;12.17;82.17
41102;BME280;26845;50.190;19.178;2022-09-17T12:04:57;97687.83;;;12.27;82.50
41102;BME280;26845;50.190;19.178;2022-09-17T12:10:34;97690.30;;;12.44;82.09
41102;BME280;26845;50.190;19.178;2022-09-17T12:16:24;97681.56;;;12.46;82.17
41102;BME280;26845;50.190;19.178;2022-09-17T12:19:10;97685.02;;;12.49;82.33
41102;BME280;26845;50.190;19.178;2022-09-17T12:21:56;97676.23;;;12.47;82.41
41102;BME280;26845;50.190;19.178;2022-09-17T12:24:29;97671.89;;;12.55;82.61
41102;BME280;26845;50.190;19.178;2022-09-17T12:27:26;97669.41;;;12.60;82.44
41102;BME280;26845;50.190;19.178;2022-09-17T12:30:21;97663.36;;;12.64;82.48
41102;BME280;26845;50.190;19.178;2022-09-17T12:32:59;97658.20;;;12.66;82.37
41102;BME280;26845;50.190;19.178;2022-09-17T12:35:45;97655.08;;;12.68;82.46
41102;BME280;26845;50.190;19.178;2022-09-17T12:53:27;97642.88;;;12.50;81.33
41102;BME280;26845;50.190;19.178;2022-09-17T12:59:01;97633.13;;;12.50;81.93
41102;BME280;26845;50.190;19.178;2022-09-17T13:01:39;97627.18;;;12.52;81.43
41102;BME280;26845;50.190;19.178;2022-09-17T13:21:53;97616.01;;;12.90;82.27
41102;BME280;26845;50.190;19.178;2022-09-17T13:24:24;97610.13;;;12.95;82.33
41102;BME280;26845;50.190;19.178;2022-09-17T13:26:53;97603.70;;;13.00;81.81
41102;BME280;26845;50.190;19.178;2022-09-17T13:48:31;97637.27;;;13.04;80.67
41102;BME280;26845;50.190;19.178;2022-09-17T13:54:07;97653.81;;;12.97;80.70
41102;BME280;26845;50.190;19.178;2022-09-17T14:04:46;97593.56;;;12.92;80.67
41102;BME280;26845;50.190;19.178;2022-09-17T14:21:13;97548.48;;;13.16;81.74
41102;BME280;26845;50.190;19.178;2022-09-17T14:23:45;97548.09;;;13.43;81.86
41102;BME280;26845;50.190;19.178;2022-09-17T14:26:27;97549.13;;;13.73;81.81
41102;BME280;26845;50.190;19.178;2022-09-17T14:31:58;97569.66;;;14.24;80.53
41102;BME280;26845;50.190;19.178;2022-09-17T14:34:25;97581.73;;;14.18;78.88
41102;BME280;26845;50.190;19.178;2022-09-17T14:36:53;97593.88;;;14.06;79.24
41102;BME280;26845;50.190;19.178;2022-09-17T14:39:29;97586.82;;;13.93;79.51
41102;BME280;26845;50.190;19.178;2022-09-17T14:41:58;97604.11;;;13.89;80.03
41102;BME280;26845;50.190;19.178;2022-09-17T14:44:30;97607.99;;;13.84;79.65
41102;BME280;26845;50.190;19.178;2022-09-17T14:47:02;97602.03;;;13.76;79.59
41102;BME280;26845;50.190;19.178;2022-09-17T14:49:37;97603.44;;;13.66;79.54
41102;BME280;26845;50.190;19.178;2022-09-17T14:52:30;97597.55;;;13.62;79.99
41102;BME280;26845;50.190;19.178;2022-09-17T14:55:15;97599.53;;;13.61;79.63
41102;BME280;26845;50.190;19.178;2022-09-17T14:57:51;97587.63;;;13.64;80.19
41102;BME280;26845;50.190;19.178;2022-09-17T15:00:24;97588.16;;;13.70;79.95
41102;BME280;26845;50.190;19.178;2022-09-17T15:02:56;97582.26;;;13.65;79.86
41102;BME280;26845;50.190;19.178;2022-09-17T15:05:35;97574.86;;;13.63;79.85
41102;BME280;26845;50.190;19.178;2022-09-17T15:08:17;97567.88;;;13.63;80.18
41102;BME280;26845;50.190;19.178;2022-09-17T15:10:51;97566.32;;;13.56;80.05
41102;BME280;26845;50.190;19.178;2022-09-17T15:13:33;97571.17;;;13.59;80.73
41102;BME280;26845;50.190;19.178;2022-09-17T15:16:22;97570.81;;;13.61;80.54
41102;BME280;26845;50.190;19.178;2022-09-17T15:18:53;97573.51;;;13.57;79.71
41102;BME280;26845;50.190;19.178;2022-09-17T15:21:45;97565.35;;;13.48;80.11
41102;BME280;26845;50.190;19.178;2022-09-17T15:29:54;97573.03;;;13.26;80.20
41102;BME280;26845;50.190;19.178;2022-09-17T15:32:24;97570.70;;;13.28;80.59
41102;BME280;26845;50.190;19.178;2022-09-17T15:35:17;97579.45;;;13.26;80.26
41102;BME280;26845;50.190;19.178;2022-09-17T15:37:44;97585.94;;;13.24;80.49
41102;BME280;26845;50.190;19.178;2022-09-17T15:40:14;97594.13;;;13.17;80.42
41102;BME280;26845;50.190;19.178;2022-09-17T15:43:43;97599.56;;;13.10;80.56
41102;BME280;26845;50.190;19.178;2022-09-17T15:45:43;97597.77;;;12.86;80.64
41102;BME280;26845;50.190;19.178;2022-09-17T15:51:03;97598.88;;;12.81;80.87
41102;BME280;26845;50.190;19.178;2022-09-17T15:53:33;97591.84;;;12.72;81.21
41102;BME280;26845;50.190;19.178;2022-09-17T16:06:59;97590.83;;;12.38;82.21
41102;BME280;26845;50.190;19.178;2022-09-17T16:09:40;97591.41;;;12.38;82.48
41102;BME280;26845;50.190;19.178;2022-09-17T16:12:18;97591.41;;;12.38;82.65
41102;BME280;26845;50.190;19.178;2022-09-17T16:14:45;97595.55;;;12.44;82.65
41102;BME280;26845;50.190;19.178;2022-09-17T16:17:19;97594.70;;;12.50;82.80
41102;BME280;26845;50.190;19.178;2022-09-17T16:19:55;97600.81;;;12.55;82.88
41102;BME280;26845;50.190;19.178;2022-09-17T16:22:22;97601.48;;;12.58;82.77
41102;BME280;26845;50.190;19.178;2022-09-17T16:24:49;97602.30;;;12.59;82.82
41102;BME280;26845;50.190;19.178;2022-09-17T16:27:19;97606.55;;;12.63;83.11
41102;BME280;26845;50.190;19.178;2022-09-17T16:29:48;97599.45;;;12.65;82.98
41102;BME280;26845;50.190;19.178;2022-09-17T16:32:16;97597.92;;;12.52;82.84
41102;BME280;26845;50.190;19.178;2022-09-17T16:34:43;97600.03;;;12.49;83.16
41102;BME280;26845;50.190;19.178;2022-09-17T16:37:09;97609.66;;;12.35;83.19
41102;BME280;26845;50.190;19.178;2022-09-17T16:39:36;97610.80;;;12.19;83.84
41102;BME280;26845;50.190;19.178;2022-09-17T16:42:03;97609.13;;;12.02;84.35
41102;BME280;26845;50.190;19.178;2022-09-17T16:44:30;97606.54;;;11.87;84.32
41102;BME280;26845;50.190;19.178;2022-09-17T16:46:56;97593.55;;;11.79;84.47
41102;BME280;26845;50.190;19.178;2022-09-17T16:49:25;97599.27;;;11.70;84.59
41102;BME280;26845;50.190;19.178;2022-09-17T16:51:52;97598.11;;;11.65;84.76
41102;BME280;26845;50.190;19.178;2022-09-17T16:54:19;97595.09;;;11.64;84.87
41102;BME280;26845;50.190;19.178;2022-09-17T16:56:46;97589.52;;;11.64;84.91
41102;BME280;26845;50.190;19.178;2022-09-17T16:59:13;97591.98;;;11.59;85.29
41102;BME280;26845;50.190;19.178;2022-09-17T17:01:40;97599.09;;;11.51;85.18
41102;BME280;26845;50.190;19.178;2022-09-17T17:04:07;97602.70;;;11.45;85.30